createdAt,value
2023-03-06T00:00:33.741Z,93462.38
2023-03-06T00:03:01.113Z,93452.97
2023-03-06T00:05:28.564Z,93452.06
2023-03-06T00:07:55.281Z,93457.84
2023-03-06T00:10:28.038Z,93443.91
2023-03-06T00:12:57.176Z,93446.59
2023-03-06T00:15:26.379Z,93440.97
2023-03-06T00:17:53.707Z,93445.31
2023-03-06T00:20:21.627Z,93432.59
2023-03-06T00:22:49.514Z,93430.22
2023-03-06T00:25:19.135Z,93428.28
2023-03-06T00:27:46.075Z,93421.91
2023-03-06T00:30:15.586Z,93412.78
2023-03-06T00:32:42.811Z,93419.28
2023-03-06T00:35:09.617Z,93414.41
2023-03-06T00:37:36.284Z,93412.84
2023-03-06T00:40:05.905Z,93412.78
2023-03-06T00:42:32.475Z,93411.56
2023-03-06T00:44:58.995Z,93407.03
2023-03-06T00:47:25.525Z,93405.81
2023-03-06T00:49:52.079Z,93406.50
2023-03-06T00:52:18.835Z,93410.34
2023-03-06T00:54:45.494Z,93404.63
2023-03-06T00:57:12.467Z,93401.94
2023-03-06T00:59:38.977Z,93397.22
2023-03-06T01:02:05.840Z,93397.53
2023-03-06T01:04:32.526Z,93396.31
2023-03-06T01:06:59.238Z,93391.28
2023-03-06T01:09:25.836Z,93389.78
2023-03-06T01:11:53.908Z,93378.31
2023-03-06T01:14:20.472Z,93385.84
2023-03-06T01:16:47.905Z,93384.78
2023-03-06T01:19:17.462Z,93386.38
2023-03-06T01:21:45.057Z,93384.78
2023-03-06T01:24:11.585Z,93377.69
2023-03-06T01:26:38.189Z,93372.09
2023-03-06T01:29:04.789Z,93373.28
2023-03-06T01:31:32.236Z,93376.25
2023-03-06T01:33:58.813Z,93365.00
2023-03-06T01:36:25.359Z,93367.03
2023-03-06T01:38:51.942Z,93361.16
2023-03-06T01:41:21.102Z,93358.03
2023-03-06T01:43:48.203Z,93346.69
2023-03-06T01:46:37.962Z,93337.91
2023-03-06T01:49:14.311Z,93343.09
2023-03-06T01:51:48.202Z,93336.56
2023-03-06T01:54:21.244Z,93331.56
2023-03-06T01:56:51.064Z,93327.28
2023-03-06T01:59:19.814Z,93319.63
2023-03-06T02:01:47.060Z,93316.94
2023-03-06T02:04:14.302Z,93318.84
2023-03-06T02:06:43.310Z,93314.16
2023-03-06T02:09:11.045Z,93316.16
2023-03-06T02:11:38.289Z,93311.13
2023-03-06T02:14:05.112Z,93315.72
2023-03-06T02:16:33.154Z,93311.47
2023-03-06T02:19:02.130Z,93312.09
2023-03-06T02:21:34.161Z,93314.59
2023-03-06T02:24:44.158Z,93311.66
2023-03-06T02:27:14.259Z,93314.16
2023-03-06T02:29:41.270Z,93307.66
2023-03-06T02:32:08.206Z,93300.91
2023-03-06T02:34:37.759Z,93301.34
2023-03-06T02:37:10.438Z,93296.31
2023-03-06T02:39:44.245Z,93287.88
2023-03-06T02:42:17.814Z,93290.94
2023-03-06T02:44:44.552Z,93300.84
2023-03-06T02:47:11.117Z,93290.94
2023-03-06T02:49:37.852Z,93290.06
2023-03-06T02:52:06.745Z,93282.28
2023-03-06T02:54:33.473Z,93285.53
2023-03-06T02:57:00.090Z,93280.16
2023-03-06T02:59:26.716Z,93278.16
2023-03-06T03:01:53.692Z,93277.41
2023-03-06T03:04:20.408Z,93273.44
2023-03-06T03:06:47.322Z,93258.84
2023-03-06T03:09:14.250Z,93267.44
2023-03-06T03:11:40.782Z,93265.56
2023-03-06T03:14:07.546Z,93256.97
2023-03-06T03:16:34.163Z,93261.66
2023-03-06T03:19:00.681Z,93256.91
2023-03-06T03:21:27.642Z,93256.22
2023-03-06T03:23:55.182Z,93251.72
2023-03-06T03:26:22.691Z,93252.38
2023-03-06T03:29:04.637Z,93254.00
2023-03-06T03:31:32.665Z,93256.34
2023-03-06T03:34:00.679Z,93246.47
2023-03-06T03:36:29.292Z,93243.41
2023-03-06T03:38:57.660Z,93243.22
2023-03-06T03:41:24.455Z,93243.94
2023-03-06T03:43:52.024Z,93235.44
2023-03-06T03:46:21.491Z,93233.88
2023-03-06T03:48:49.111Z,93227.53
2023-03-06T03:51:16.611Z,93231.97
2023-03-06T03:53:47.127Z,93231.91
2023-03-06T03:56:17.747Z,93229.16
2023-03-06T03:58:53.872Z,93220.97
2023-03-06T04:01:21.356Z,93228.25
2023-03-06T04:03:47.972Z,93228.50
2023-03-06T04:06:16.573Z,93221.59
2023-03-06T04:08:45.761Z,93215.41
2023-03-06T04:11:12.463Z,93223.84
2023-03-06T04:13:39.514Z,93220.41
2023-03-06T04:16:06.412Z,93217.41
2023-03-06T04:18:35.006Z,93213.53
2023-03-06T04:21:04.877Z,93220.22
2023-03-06T04:23:31.791Z,93224.91
2023-03-06T04:25:58.550Z,93215.50
2023-03-06T04:28:25.451Z,93226.22
2023-03-06T04:30:52.354Z,93223.91
2023-03-06T04:33:20.145Z,93218.03
2023-03-06T04:35:46.896Z,93226.09
2023-03-06T04:38:19.167Z,93214.44
2023-03-06T04:40:45.754Z,93216.28
2023-03-06T04:43:12.406Z,93207.19
2023-03-06T04:45:39.092Z,93218.09
2023-03-06T04:48:06.022Z,93214.47
2023-03-06T04:50:33.244Z,93205.38
2023-03-06T04:53:01.673Z,93214.31
2023-03-06T04:55:28.849Z,93203.25
2023-03-06T04:57:56.151Z,93208.69
2023-03-06T05:00:25.530Z,93209.81
2023-03-06T05:02:52.505Z,93208.31
2023-03-06T05:05:19.301Z,93209.53
2023-03-06T05:07:45.823Z,93211.00
2023-03-06T05:10:14.872Z,93217.34
2023-03-06T05:12:41.724Z,93210.44
2023-03-06T05:15:08.787Z,93210.84
2023-03-06T05:17:35.398Z,93212.69
2023-03-06T05:20:02.037Z,93210.56
2023-03-06T05:22:28.573Z,93215.22
2023-03-06T05:24:55.095Z,93214.38
2023-03-06T05:27:21.709Z,93218.41
2023-03-06T05:29:48.302Z,93218.69
2023-03-06T05:32:16.929Z,93208.13
2023-03-06T05:34:43.530Z,93206.94
2023-03-06T05:37:10.080Z,93211.38
2023-03-06T05:39:37.226Z,93209.69
2023-03-06T05:42:03.879Z,93219.72
2023-03-06T05:44:34.698Z,93218.44
2023-03-06T05:47:01.685Z,93215.81
2023-03-06T05:49:32.674Z,93217.47
2023-03-06T05:51:59.725Z,93212.50
2023-03-06T05:54:26.694Z,93206.44
2023-03-06T05:56:53.561Z,93207.97
2023-03-06T05:59:20.089Z,93201.81
2023-03-06T06:01:46.627Z,93199.22
2023-03-06T06:04:13.194Z,93207.31
2023-03-06T06:06:39.710Z,93206.75
2023-03-06T06:09:06.210Z,93199.53
2023-03-06T06:11:32.770Z,93198.09
2023-03-06T06:13:59.349Z,93206.28
2023-03-06T06:16:25.881Z,93212.94
2023-03-06T06:18:52.516Z,93212.41
2023-03-06T06:21:19.863Z,93211.25
2023-03-06T06:23:46.426Z,93211.69
2023-03-06T06:26:13.024Z,93215.16
2023-03-06T06:28:39.643Z,93210.50
2023-03-06T06:31:12.234Z,93214.63
2023-03-06T06:33:39.611Z,93218.88
2023-03-06T06:36:14.250Z,93210.13
2023-03-06T06:38:40.796Z,93222.41
2023-03-06T06:41:46.632Z,93223.66
2023-03-06T06:43:53.905Z,93214.84
2023-03-06T06:47:02.718Z,93222.94
2023-03-06T06:49:07.405Z,93238.25
2023-03-06T06:51:34.129Z,93231.72
2023-03-06T06:54:01.195Z,93234.47
2023-03-06T06:56:27.725Z,93238.47
2023-03-06T06:59:01.330Z,93233.59
2023-03-06T07:01:37.059Z,93227.06
2023-03-06T07:04:03.935Z,93237.53
2023-03-06T07:06:30.539Z,93239.03
2023-03-06T07:08:57.555Z,93237.41
2023-03-06T07:11:24.111Z,93242.81
2023-03-06T07:13:50.745Z,93241.56
2023-03-06T07:16:17.755Z,93247.78
2023-03-06T07:18:45.328Z,93243.59
2023-03-06T07:21:12.151Z,93242.47
2023-03-06T07:23:38.752Z,93249.34
2023-03-06T07:26:05.353Z,93247.78
2023-03-06T07:28:46.132Z,93251.31
2023-03-06T07:31:18.436Z,93251.19
2023-03-06T07:33:45.054Z,93249.00
2023-03-06T07:36:13.566Z,93258.25
2023-03-06T07:38:40.547Z,93255.56
2023-03-06T07:41:13.100Z,93254.00
2023-03-06T07:43:41.265Z,93253.25
2023-03-06T07:46:08.073Z,93262.09
2023-03-06T07:48:35.594Z,93254.88
2023-03-06T07:51:05.554Z,93261.72
2023-03-06T07:53:33.681Z,93265.88
2023-03-06T07:56:00.536Z,93262.22
2023-03-06T07:58:27.406Z,93260.59
2023-03-06T08:00:53.971Z,93269.56
2023-03-06T08:03:20.599Z,93267.69
2023-03-06T08:05:47.168Z,93266.81
2023-03-06T08:08:13.742Z,93267.56
2023-03-06T08:10:40.315Z,93273.34
2023-03-06T08:13:06.881Z,93267.84
2023-03-06T08:15:33.391Z,93276.78
2023-03-06T08:18:00.029Z,93277.53
2023-03-06T08:20:26.644Z,93267.63
2023-03-06T08:22:53.241Z,93279.59
2023-03-06T08:25:19.813Z,93275.03
2023-03-06T08:27:47.414Z,93281.97
2023-03-06T08:30:14.675Z,93269.81
2023-03-06T08:32:41.327Z,93276.41
2023-03-06T08:35:08.393Z,93273.31
2023-03-06T08:37:35.164Z,93270.53
2023-03-06T08:40:04.483Z,93273.00
2023-03-06T08:42:31.895Z,93272.41
2023-03-06T08:44:58.526Z,93272.50
2023-03-06T08:47:25.161Z,93271.84
2023-03-06T08:49:51.713Z,93274.50
2023-03-06T08:52:19.833Z,93275.69
2023-03-06T08:54:46.557Z,93273.94
2023-03-06T08:57:13.095Z,93271.38
2023-03-06T08:59:39.671Z,93277.13
2023-03-06T09:02:07.570Z,93270.44
2023-03-06T09:04:34.397Z,93279.38
2023-03-06T09:07:01.267Z,93272.16
2023-03-06T09:09:27.861Z,93280.72
2023-03-06T09:11:54.951Z,93279.34
2023-03-06T09:14:21.544Z,93280.94
2023-03-06T09:16:48.193Z,93285.28
2023-03-06T09:19:14.743Z,93275.34
2023-03-06T09:21:41.370Z,93276.47
2023-03-06T09:24:08.347Z,93286.19
2023-03-06T09:26:51.684Z,93282.72
2023-03-06T09:29:18.628Z,93284.28
2023-03-06T09:31:45.589Z,93282.22
2023-03-06T09:34:12.240Z,93279.22
2023-03-06T09:36:54.930Z,93286.63
2023-03-06T09:39:23.064Z,93283.78
2023-03-06T09:41:50.117Z,93290.56
2023-03-06T09:44:29.228Z,93286.53
2023-03-06T09:47:10.572Z,93294.25
2023-03-06T09:50:02.084Z,93285.13
2023-03-06T09:52:31.709Z,93297.28
2023-03-06T09:55:12.825Z,93289.00
2023-03-06T09:57:58.631Z,93291.59
2023-03-06T10:00:34.718Z,93297.00
2023-03-06T10:03:21.448Z,93294.84
2023-03-06T10:05:55.079Z,93296.91
2023-03-06T10:08:25.091Z,93295.94
2023-03-06T10:10:59.584Z,93297.31
2023-03-06T10:13:35.239Z,93296.09
2023-03-06T10:16:27.032Z,93295.72
2023-03-06T10:19:04.909Z,93303.91
2023-03-06T10:22:13.711Z,93299.97
2023-03-06T10:24:58.984Z,93297.75
2023-03-06T10:27:42.794Z,93300.44
2023-03-06T10:30:33.920Z,93302.22
2023-03-06T10:33:26.925Z,93301.88
2023-03-06T10:35:55.420Z,93294.59
2023-03-06T10:38:26.531Z,93293.28
2023-03-06T10:41:16.384Z,93292.16
2023-03-06T10:44:06.698Z,93292.66
2023-03-06T10:46:35.165Z,93290.78
2023-03-06T10:49:05.334Z,93288.22
2023-03-06T10:51:34.033Z,93283.00
2023-03-06T10:54:19.245Z,93300.97
2023-03-06T10:56:47.430Z,93295.78
2023-03-06T10:59:28.313Z,93298.34
2023-03-06T11:02:16.388Z,93290.41
2023-03-06T11:04:51.009Z,93290.63
2023-03-06T11:07:26.182Z,93291.94
2023-03-06T11:09:58.727Z,93289.06
2023-03-06T11:12:27.600Z,93288.91
2023-03-06T11:15:27.157Z,93291.00
2023-03-06T11:18:08.703Z,93284.84
2023-03-06T11:20:51.938Z,93282.41
2023-03-06T11:23:37.456Z,93279.81
2023-03-06T11:26:15.410Z,93277.97
2023-03-06T11:28:58.939Z,93274.97
2023-03-06T11:31:34.583Z,93279.22
2023-03-06T11:34:05.115Z,93279.16
2023-03-06T11:36:55.277Z,93278.06
2023-03-06T11:39:53.309Z,93271.47
2023-03-06T11:42:42.558Z,93270.84
2023-03-06T11:45:26.546Z,93258.16
2023-03-06T11:48:01.712Z,93257.47
2023-03-06T11:50:44.739Z,93259.25
2023-03-06T11:53:18.426Z,93254.41
2023-03-06T11:56:03.465Z,93249.00
2023-03-06T11:59:07.740Z,93256.78
2023-03-06T12:01:47.235Z,93251.09
2023-03-06T12:04:34.838Z,93242.53
2023-03-06T12:07:30.381Z,93250.97
2023-03-06T12:10:23.302Z,93237.50
2023-03-06T12:13:20.398Z,93235.19
2023-03-06T12:16:25.174Z,93232.94
2023-03-06T12:19:33.866Z,93237.56
2023-03-06T12:22:12.463Z,93235.94
2023-03-06T12:24:38.947Z,93230.50
2023-03-06T12:27:34.735Z,93237.00
2023-03-06T12:30:04.204Z,93229.28
2023-03-06T12:32:57.559Z,93236.97
2023-03-06T12:35:45.449Z,93233.13
2023-03-06T12:38:33.873Z,93216.88
2023-03-06T12:41:22.949Z,93217.66
2023-03-06T12:44:01.259Z,93208.34
2023-03-06T12:46:30.446Z,93216.41
2023-03-06T12:49:10.289Z,93216.50
2023-03-06T12:51:39.841Z,93221.56
2023-03-06T12:54:07.280Z,93213.09
2023-03-06T12:56:35.333Z,93210.44
2023-03-06T12:59:02.569Z,93204.59
2023-03-06T13:01:56.332Z,93209.53
2023-03-06T13:04:51.947Z,93212.19
2023-03-06T13:07:36.762Z,93201.53
2023-03-06T13:10:18.757Z,93199.25
2023-03-06T13:12:55.966Z,93195.81
2023-03-06T13:15:41.995Z,93203.47
2023-03-06T13:18:34.651Z,93201.06
2023-03-06T13:21:01.319Z,93209.56
2023-03-06T13:23:33.999Z,93195.25
2023-03-06T13:26:25.369Z,93203.31
2023-03-06T13:28:54.416Z,93201.00
2023-03-06T13:31:36.455Z,93194.09
2023-03-06T13:34:24.837Z,93191.66
2023-03-06T13:36:51.744Z,93191.19
2023-03-06T13:39:18.341Z,93191.44
2023-03-06T13:41:57.573Z,93189.44
2023-03-06T13:44:24.297Z,93184.09
2023-03-06T13:47:04.799Z,93187.19
2023-03-06T13:49:33.304Z,93189.88
2023-03-06T13:52:11.012Z,93183.25
2023-03-06T13:54:43.338Z,93189.38
2023-03-06T13:57:26.203Z,93192.03
2023-03-06T14:00:14.406Z,93195.47
2023-03-06T14:03:33.842Z,93187.66
2023-03-06T14:06:00.660Z,93195.78
2023-03-06T14:08:30.265Z,93209.28
2023-03-06T14:11:02.748Z,93202.63
2023-03-06T14:13:46.575Z,93205.94
2023-03-06T14:16:48.918Z,93203.28
2023-03-06T14:19:18.681Z,93205.66
2023-03-06T14:21:45.210Z,93204.69
2023-03-06T14:24:17.485Z,93203.91
2023-03-06T14:26:48.505Z,93199.69
2023-03-06T14:29:25.887Z,93200.75
2023-03-06T14:31:54.698Z,93195.28
2023-03-06T14:34:23.582Z,93194.41
2023-03-06T14:36:52.581Z,93210.31
2023-03-06T14:39:36.011Z,93199.88
2023-03-06T14:42:19.244Z,93202.50
2023-03-06T14:44:47.167Z,93202.59
2023-03-06T14:47:29.345Z,93205.66
2023-03-06T14:50:21.746Z,93204.03
2023-03-06T14:52:50.299Z,93195.34
2023-03-06T14:55:25.548Z,93202.22
2023-03-06T14:58:17.876Z,93189.91
2023-03-06T15:00:49.381Z,93194.69
2023-03-06T15:03:26.754Z,93196.19
2023-03-06T15:05:54.861Z,93203.22
2023-03-06T15:08:26.659Z,93198.50
2023-03-06T15:11:00.548Z,93198.50
2023-03-06T15:13:29.032Z,93202.78
2023-03-06T15:16:24.681Z,93190.78
2023-03-06T15:19:02.482Z,93193.91
2023-03-06T15:21:37.962Z,93193.94
2023-03-06T15:24:32.009Z,93190.38
2023-03-06T15:27:04.404Z,93195.13
2023-03-06T15:29:31.120Z,93183.94
2023-03-06T15:32:30.463Z,93189.72
2023-03-06T15:35:25.307Z,93176.13
2023-03-06T15:37:52.272Z,93181.75
2023-03-06T15:40:23.998Z,93182.53
2023-03-06T15:42:50.749Z,93182.50
2023-03-06T15:45:22.457Z,93182.03
2023-03-06T15:47:49.885Z,93188.94
2023-03-06T15:50:19.447Z,93180.41
2023-03-06T15:52:47.233Z,93176.50
2023-03-06T15:55:15.715Z,93180.13
2023-03-06T15:57:50.668Z,93186.25
2023-03-06T16:00:28.315Z,93187.81
2023-03-06T16:02:58.821Z,93195.13
2023-03-06T16:05:27.082Z,93192.47
2023-03-06T16:07:54.056Z,93192.81
2023-03-06T16:10:27.285Z,93189.13
2023-03-06T16:12:56.737Z,93184.97
2023-03-06T16:15:28.862Z,93183.78
2023-03-06T16:17:56.852Z,93175.97
2023-03-06T16:20:25.545Z,93174.78
2023-03-06T16:22:55.257Z,93178.78
2023-03-06T16:25:24.069Z,93179.34
2023-03-06T16:27:59.483Z,93181.28
2023-03-06T16:30:28.948Z,93185.78
2023-03-06T16:32:55.615Z,93178.78
2023-03-06T16:35:22.231Z,93183.38
2023-03-06T16:37:49.006Z,93181.03
2023-03-06T16:40:25.766Z,93189.34
2023-03-06T16:42:54.062Z,93193.63
2023-03-06T16:45:22.579Z,93192.78
2023-03-06T16:47:49.619Z,93192.00
2023-03-06T16:50:28.645Z,93189.94
2023-03-06T16:52:56.408Z,93191.16
2023-03-06T16:55:25.095Z,93194.34
2023-03-06T16:57:52.230Z,93193.91
2023-03-06T17:00:20.132Z,93198.97
2023-03-06T17:02:50.418Z,93198.16
2023-03-06T17:05:17.846Z,93195.34
2023-03-06T17:07:44.710Z,93198.25
2023-03-06T17:10:14.670Z,93205.72
2023-03-06T17:12:41.964Z,93205.66
2023-03-06T17:15:09.857Z,93210.38
2023-03-06T17:17:37.036Z,93209.19
2023-03-06T17:20:04.801Z,93214.88
2023-03-06T17:22:35.813Z,93209.81
2023-03-06T17:25:05.022Z,93211.31
2023-03-06T17:27:31.621Z,93213.91
2023-03-06T17:29:58.846Z,93217.72
2023-03-06T17:32:26.769Z,93221.91
2023-03-06T17:34:53.924Z,93223.31
2023-03-06T17:37:20.924Z,93222.19
2023-03-06T17:39:47.751Z,93217.63
2023-03-06T17:42:14.277Z,93214.59
2023-03-06T17:44:41.244Z,93216.81
2023-03-06T17:47:07.794Z,93216.06
2023-03-06T17:49:34.450Z,93218.44
2023-03-06T17:52:02.805Z,93223.53
2023-03-06T17:54:30.168Z,93226.28
2023-03-06T17:57:01.016Z,93232.97
2023-03-06T17:59:28.132Z,93235.09
2023-03-06T18:01:58.523Z,93235.56
2023-03-06T18:04:25.574Z,93237.50
2023-03-06T18:06:52.451Z,93231.34
2023-03-06T18:09:19.232Z,93227.78
2023-03-06T18:11:45.770Z,93231.00
2023-03-06T18:14:12.317Z,93227.31
2023-03-06T18:16:38.904Z,93229.28
2023-03-06T18:19:05.488Z,93230.84
2023-03-06T18:21:32.035Z,93232.28
2023-03-06T18:23:58.828Z,93233.00
2023-03-06T18:26:27.893Z,93231.38
2023-03-06T18:28:57.017Z,93243.59
2023-03-06T18:31:27.543Z,93237.63
2023-03-06T18:34:00.572Z,93247.53
2023-03-06T18:36:29.957Z,93244.19
2023-03-06T18:38:57.369Z,93242.50
2023-03-06T18:41:24.236Z,93240.81
2023-03-06T18:43:55.197Z,93243.59
2023-03-06T18:46:22.241Z,93241.78
2023-03-06T18:48:48.849Z,93243.72
2023-03-06T18:51:15.884Z,93240.31
2023-03-06T18:53:43.536Z,93239.03
2023-03-06T18:56:16.657Z,93237.50
2023-03-06T18:58:44.214Z,93229.16
2023-03-06T19:01:11.670Z,93236.53
2023-03-06T19:03:38.424Z,93243.41
2023-03-06T19:06:06.838Z,93233.31
2023-03-06T19:08:33.835Z,93241.00
2023-03-06T19:11:11.787Z,93233.69
2023-03-06T19:13:38.379Z,93230.25
2023-03-06T19:16:05.770Z,93234.25
2023-03-06T19:18:32.665Z,93230.25
2023-03-06T19:21:17.492Z,93236.19
2023-03-06T19:23:44.564Z,93241.63
2023-03-06T19:26:11.858Z,93238.56
2023-03-06T19:28:40.024Z,93240.38
2023-03-06T19:31:15.819Z,93243.47
2023-03-06T19:33:43.022Z,93241.38
2023-03-06T19:36:12.303Z,93241.94
2023-03-06T19:38:38.945Z,93242.69
2023-03-06T19:41:06.280Z,93241.06
2023-03-06T19:43:33.111Z,93237.78
2023-03-06T19:46:00.907Z,93239.56
2023-03-06T19:48:27.546Z,93236.38
2023-03-06T19:50:54.061Z,93235.19
2023-03-06T19:53:21.666Z,93233.78
2023-03-06T19:55:50.950Z,93237.75
2023-03-06T19:58:17.756Z,93232.69
2023-03-06T20:00:44.346Z,93226.47
2023-03-06T20:03:10.869Z,93231.44
2023-03-06T20:05:37.427Z,93224.91
2023-03-06T20:08:04.035Z,93220.59
2023-03-06T20:10:30.814Z,93230.88
2023-03-06T20:12:57.411Z,93221.28
2023-03-06T20:15:24.000Z,93223.28
2023-03-06T20:17:50.506Z,93223.34
2023-03-06T20:20:20.160Z,93218.75
2023-03-06T20:22:46.738Z,93225.97
2023-03-06T20:25:13.294Z,93222.94
2023-03-06T20:27:39.876Z,93221.97
2023-03-06T20:30:08.079Z,93223.09
2023-03-06T20:32:34.866Z,93216.00
2023-03-06T20:35:04.037Z,93219.59
2023-03-06T20:37:30.658Z,93222.41
2023-03-06T20:39:57.337Z,93216.19
2023-03-06T20:42:23.875Z,93212.03
2023-03-06T20:44:50.425Z,93211.94
2023-03-06T20:47:17.051Z,93208.81
2023-03-06T20:49:43.590Z,93210.84
2023-03-06T20:52:12.305Z,93203.47
2023-03-06T20:54:38.861Z,93207.03
2023-03-06T20:57:05.456Z,93213.38
2023-03-06T20:59:32.328Z,93213.88
2023-03-06T21:01:58.935Z,93215.13
2023-03-06T21:04:25.568Z,93213.50
2023-03-06T21:06:53.425Z,93210.75
2023-03-06T21:09:20.010Z,93208.44
2023-03-06T21:11:46.822Z,93203.06
2023-03-06T21:14:14.310Z,93199.28
2023-03-06T21:16:41.309Z,93207.44
2023-03-06T21:19:07.875Z,93204.34
2023-03-06T21:21:35.109Z,93201.63
2023-03-06T21:24:02.333Z,93204.22
2023-03-06T21:26:33.536Z,93197.97
2023-03-06T21:29:00.986Z,93201.25
2023-03-06T21:31:28.443Z,93200.56
2023-03-06T21:33:55.788Z,93196.28
2023-03-06T21:36:22.883Z,93191.47
2023-03-06T21:38:50.710Z,93191.81
2023-03-06T21:41:24.705Z,93190.47
2023-03-06T21:44:02.253Z,93195.16
2023-03-06T21:46:29.681Z,93190.41
2023-03-06T21:48:56.981Z,93185.09
2023-03-06T21:51:24.959Z,93183.63
2023-03-06T21:53:52.877Z,93188.34
2023-03-06T21:56:22.072Z,93194.84
2023-03-06T21:58:48.619Z,93186.91
2023-03-06T22:01:23.372Z,93183.31
2023-03-06T22:03:50.258Z,93181.44
2023-03-06T22:06:20.391Z,93187.19
2023-03-06T22:08:47.361Z,93182.94
2023-03-06T22:11:16.276Z,93178.34
2023-03-06T22:13:45.041Z,93177.28
2023-03-06T22:16:11.691Z,93174.94
2023-03-06T22:18:38.393Z,93170.38
2023-03-06T22:21:12.312Z,93179.19
2023-03-06T22:23:40.454Z,93182.00
2023-03-06T22:26:12.870Z,93169.47
2023-03-06T22:28:40.274Z,93165.16
2023-03-06T22:31:16.009Z,93160.53
2023-03-06T22:33:42.911Z,93160.47
2023-03-06T22:36:15.099Z,93164.72
2023-03-06T22:38:43.957Z,93167.47
2023-03-06T22:41:11.534Z,93168.81
2023-03-06T22:43:38.323Z,93166.25
2023-03-06T22:46:07.661Z,93162.84
2023-03-06T22:48:34.254Z,93159.38
2023-03-06T22:51:12.857Z,93168.22
2023-03-06T22:53:39.829Z,93163.91
2023-03-06T22:56:08.295Z,93163.66
2023-03-06T22:58:37.109Z,93157.16
2023-03-06T23:01:16.095Z,93152.56
2023-03-06T23:03:45.132Z,93146.75
2023-03-06T23:06:14.264Z,93152.56
2023-03-06T23:08:42.078Z,93145.56
2023-03-06T23:11:10.539Z,93146.75
2023-03-06T23:13:59.474Z,93139.19
2023-03-06T23:16:44.742Z,93141.09
2023-03-06T23:19:30.625Z,93136.50
2023-03-06T23:22:15.900Z,93139.91
2023-03-06T23:25:01.103Z,93134.78
2023-03-06T23:27:29.147Z,93133.94
2023-03-06T23:29:58.807Z,93133.94
2023-03-06T23:32:25.427Z,93118.81
2023-03-06T23:34:52.120Z,93121.91
2023-03-06T23:37:18.691Z,93125.41
2023-03-06T23:39:45.938Z,93121.09
2023-03-06T23:42:12.485Z,93131.38
2023-03-06T23:44:39.055Z,93126.09
2023-03-06T23:47:05.646Z,93120.78
2023-03-06T23:49:32.223Z,93130.72
2023-03-06T23:51:59.175Z,93129.22
2023-03-06T23:54:25.828Z,93134.13
2023-03-06T23:56:52.361Z,93129.44
2023-03-06T23:59:18.928Z,93133.56
